createdAt,value
2017-07-18T20:26:33.303Z,7.40
2017-07-18T20:29:00.401Z,6.97
2017-07-18T20:31:27.350Z,7.77
2017-07-18T20:33:54.558Z,7.77
2017-07-18T20:36:20.914Z,6.03
2017-07-18T20:38:47.178Z,8.10
2017-07-18T20:41:14.269Z,9.00
2017-07-18T20:43:40.755Z,9.13
2017-07-18T20:46:08.163Z,13.43
2017-07-18T20:48:34.467Z,10.27
2017-07-18T20:51:00.742Z,10.23
2017-07-18T20:53:27.182Z,8.57
2017-07-18T20:55:55.024Z,8.80
2017-07-18T20:58:22.338Z,8.50
2017-07-18T21:00:49.324Z,7.73
2017-07-18T21:03:16.013Z,7.67
2017-07-18T21:05:42.286Z,8.30
2017-07-18T21:08:10.272Z,8.17
2017-07-18T21:10:37.355Z,7.73
2017-07-18T21:13:03.595Z,7.97
2017-07-18T21:15:31.084Z,7.90
2017-07-18T21:17:58.183Z,8.40
2017-07-18T21:20:24.424Z,7.77
2017-07-18T21:22:50.734Z,7.43
2017-07-18T21:25:17.960Z,8.50
2017-07-18T21:27:44.217Z,8.27
2017-07-18T21:30:11.368Z,7.73
2017-07-18T21:32:38.313Z,7.93
2017-07-18T21:35:06.060Z,8.23
2017-07-18T21:37:32.344Z,8.80
2017-07-18T21:39:58.626Z,7.63
2017-07-18T21:42:26.454Z,8.53
2017-07-18T21:44:52.788Z,8.73
2017-07-18T21:47:20.042Z,7.57
2017-07-18T21:49:46.843Z,8.17
2017-07-18T21:52:14.103Z,10.57
2017-07-18T21:54:41.754Z,8.60
2017-07-18T21:57:08.765Z,9.70
2017-07-18T21:59:35.015Z,8.70
2017-07-18T22:02:01.283Z,8.57
2017-07-18T22:04:28.766Z,9.87
2017-07-18T22:06:55.407Z,7.87
2017-07-18T22:09:22.476Z,9.03
2017-07-18T22:11:48.727Z,9.03
2017-07-18T22:14:15.750Z,8.87
2017-07-18T22:16:42.027Z,9.77
2017-07-18T22:19:08.323Z,9.60
2017-07-18T22:21:35.613Z,10.33
2017-07-18T22:24:01.886Z,9.03
2017-07-18T22:26:28.587Z,10.80
2017-07-18T22:28:55.663Z,9.30
2017-07-18T22:31:22.559Z,9.70
2017-07-18T22:33:48.845Z,9.73
2017-07-18T22:36:15.103Z,10.43
2017-07-18T22:38:41.398Z,11.10
2017-07-18T22:41:08.123Z,10.77
2017-07-18T22:43:34.385Z,10.43
2017-07-18T22:46:00.648Z,10.73
2017-07-18T22:48:26.943Z,10.17
2017-07-18T22:50:53.828Z,10.63
2017-07-18T22:53:20.919Z,9.70
2017-07-18T22:55:47.816Z,9.73
2017-07-18T22:58:14.092Z,8.90
2017-07-18T23:00:40.344Z,8.90
2017-07-18T23:03:06.661Z,11.37
2017-07-18T23:05:32.940Z,11.10
2017-07-18T23:07:59.200Z,9.57
2017-07-18T23:10:26.165Z,9.70
2017-07-18T23:12:52.722Z,9.87
2017-07-18T23:15:19.756Z,9.00
2017-07-18T23:17:47.341Z,8.50
2017-07-18T23:20:14.354Z,10.03
2017-07-18T23:22:40.597Z,9.73
2017-07-18T23:25:07.425Z,10.60
2017-07-18T23:27:33.661Z,9.10
2017-07-18T23:29:59.930Z,9.07
2017-07-18T23:32:26.184Z,10.10
2017-07-18T23:34:52.442Z,11.40
2017-07-18T23:37:19.684Z,10.83
2017-07-18T23:39:45.938Z,11.57
2017-07-18T23:42:12.218Z,11.07
2017-07-18T23:44:38.497Z,11.10
2017-07-18T23:47:05.393Z,10.43
2017-07-18T23:49:32.657Z,9.77
2017-07-18T23:51:58.938Z,10.30
2017-07-18T23:54:25.602Z,11.37
2017-07-18T23:56:52.961Z,9.27
2017-07-18T23:59:19.533Z,8.30
